Time;durP1;ratioP1;P1;durP2;ratioP2;P2;SDS_P1;SDS_P2;PMS_P1;PMS_P2;Temp;Humidity;BMP_temperature;BMP_pressure;BME280_temperature;BME280_humidity;BME280_pressure;Samples;Min_cycle;Max_cycle;Signal;HPM_P1;HPM_P2
2023/07/24 00:00:13;;;;;;;3.90;1.60;;;;;;;20.47;56.83;98728.91;101100;295;26972;-35
2023/07/24 00:02:39;;;;;;;2.10;1.00;;;;;;;20.45;56.54;98725.16;101084;295;24299;-31
2023/07/24 00:05:05;;;;;;;2.20;1.30;;;;;;;20.46;56.35;98722.48;101223;295;23034;-35
2023/07/24 00:07:31;;;;;;;3.40;1.80;;;;;;;20.37;56.92;98724.70;101078;295;25451;-31
2023/07/24 00:09:56;;;;;;;2.60;1.80;;;;;;;20.35;57.57;98719.67;101096;295;22667;-34
2023/07/24 00:12:22;;;;;;;3.90;1.20;;;;;;;20.31;57.38;98716.70;101213;295;22586;-37
2023/07/24 00:14:48;;;;;;;2.50;1.80;;;;;;;20.28;57.99;98711.89;101258;295;22886;-33
2023/07/24 00:17:13;;;;;;;2.10;1.00;;;;;;;20.24;58.74;98712.23;101199;295;22674;-32
2023/07/24 00:19:39;;;;;;;3.10;1.40;;;;;;;20.16;58.86;98708.27;101235;295;23008;-36
2023/07/24 00:22:05;;;;;;;3.60;1.60;;;;;;;20.09;58.43;98705.89;101022;295;26914;-31
2023/07/24 00:24:31;;;;;;;2.90;1.40;;;;;;;19.96;58.48;98706.79;101042;295;26853;-35
2023/07/24 00:26:57;;;;;;;3.40;1.80;;;;;;;19.85;58.34;98707.51;101028;288;24136;-34
2023/07/24 00:29:23;;;;;;;2.00;1.40;;;;;;;19.79;58.78;98707.66;101040;295;22577;-35
2023/07/24 00:31:49;;;;;;;2.00;1.60;;;;;;;19.65;59.23;98707.45;101120;295;25320;-36
2023/07/24 00:34:14;;;;;;;2.70;1.50;;;;;;;19.43;60.25;98708.02;101315;295;23124;-30
2023/07/24 00:36:40;;;;;;;5.40;1.60;;;;;;;19.29;60.58;98705.23;101173;295;25303;-30
2023/07/24 01:17:33;;;;;;;2.70;1.50;;;;;;;17.67;65.96;98691.47;100812;297;559298;-29
2023/07/24 01:19:59;;;;;;;2.30;1.30;;;;;;;17.58;67.35;98695.89;100739;298;544796;-29
2023/07/24 01:22:36;;;;;;;1.60;1.10;;;;;;;17.49;67.91;98694.25;101143;297;26962;-30
2023/07/24 01:25:19;;;;;;;2.30;1.60;;;;;;;17.42;67.94;98697.49;101248;296;24260;-29
2023/07/24 01:27:45;;;;;;;2.20;1.50;;;;;;;17.30;68.64;98696.63;101193;285;22577;-38
2023/07/24 01:30:11;;;;;;;4.00;2.10;;;;;;;17.26;68.40;98693.23;100962;296;22883;-30
2023/07/24 01:32:38;;;;;;;2.70;1.90;;;;;;;17.28;67.84;98693.41;101202;285;23008;-30
2023/07/24 01:35:04;;;;;;;4.60;2.40;;;;;;;17.24;68.41;98691.54;101049;285;22886;-35
2023/07/24 01:37:30;;;;;;;2.40;1.20;;;;;;;17.23;67.85;98692.94;101075;285;24261;-29
2023/07/24 01:39:56;;;;;;;3.80;2.20;;;;;;;17.16;67.75;98693.02;101018;285;24140;-29
2023/07/24 01:42:21;;;;;;;2.70;1.40;;;;;;;17.15;67.70;98690.58;100942;298;22573;-32
2023/07/24 01:44:56;;;;;;;1.80;1.30;;;;;;;17.12;67.82;98687.13;101111;285;23039;-29
2023/07/24 01:47:22;;;;;;;2.10;1.70;;;;;;;17.09;67.37;98679.34;101245;285;22693;-32
2023/07/24 01:49:48;;;;;;;2.70;1.90;;;;;;;17.03;67.46;98681.23;101079;285;25605;-32
2023/07/24 01:52:14;;;;;;;3.50;1.90;;;;;;;16.94;67.97;98680.42;101102;297;27129;-29
2023/07/24 01:54:39;;;;;;;3.20;1.40;;;;;;;16.87;68.02;98681.08;101269;297;22882;-29
2023/07/24 01:57:05;;;;;;;3.30;1.40;;;;;;;16.85;69.11;98681.32;101052;289;24180;-34
2023/07/24 01:59:31;;;;;;;2.70;1.70;;;;;;;16.86;68.81;98683.71;101154;297;22974;-33
2023/07/24 02:01:56;;;;;;;2.00;0.90;;;;;;;16.83;68.78;98681.20;101019;285;24145;-30
2023/07/24 02:04:22;;;;;;;1.60;1.00;;;;;;;16.78;69.29;98679.94;100989;296;24143;-34
2023/07/24 02:06:51;;;;;;;1.70;1.30;;;;;;;16.77;69.20;98681.52;101127;296;24143;-36
2023/07/24 02:09:17;;;;;;;2.30;1.70;;;;;;;16.77;70.30;98684.42;101069;285;25452;-35
2023/07/24 02:11:43;;;;;;;1.30;0.80;;;;;;;16.72;70.59;98684.80;101108;297;25926;-29
2023/07/24 02:14:10;;;;;;;2.90;1.80;;;;;;;16.75;70.66;98677.51;101201;285;26850;-34
2023/07/24 02:16:35;;;;;;;3.60;1.40;;;;;;;16.79;69.81;98674.38;101144;285;25517;-34
2023/07/24 02:19:01;;;;;;;2.30;1.50;;;;;;;16.75;69.76;98678.02;101145;296;24264;-30
2023/07/24 02:21:26;;;;;;;2.10;1.70;;;;;;;16.72;70.26;98680.61;101060;296;24115;-29
2023/07/24 02:23:52;;;;;;;4.20;2.10;;;;;;;16.76;70.54;98680.63;101116;296;22886;-39
2023/07/24 02:26:17;;;;;;;3.50;1.70;;;;;;;16.77;71.27;98680.09;101223;285;24136;-34
2023/07/24 02:28:43;;;;;;;2.30;1.70;;;;;;;16.80;71.20;98680.56;101052;285;23016;-34
2023/07/24 02:31:08;;;;;;;3.40;2.50;;;;;;;16.72;71.22;98677.36;100330;285;1002583;-33
2023/07/24 02:33:34;;;;;;;3.10;1.50;;;;;;;16.64;71.92;98680.90;101106;285;22574;-31
2023/07/24 02:36:00;;;;;;;2.80;1.30;;;;;;;16.63;71.20;98676.33;101032;296;24145;-33
2023/07/24 02:38:26;;;;;;;2.10;0.60;;;;;;;16.66;70.26;98680.53;101065;296;26982;-33
2023/07/24 02:40:51;;;;;;;2.20;1.30;;;;;;;16.72;70.68;98677.84;101010;285;24120;-34
2023/07/24 02:43:17;;;;;;;1.80;1.10;;;;;;;16.73;70.35;98674.39;101079;296;26925;-33
2023/07/24 02:45:43;;;;;;;1.80;1.40;;;;;;;16.75;69.80;98674.53;101233;285;24264;-29
2023/07/24 02:48:08;;;;;;;3.00;1.10;;;;;;;16.72;69.75;98681.85;101125;285;26955;-34
2023/07/24 02:50:34;;;;;;;2.10;1.60;;;;;;;16.71;70.42;98690.42;101096;285;25766;-31
2023/07/24 02:53:00;;;;;;;2.50;1.70;;;;;;;16.68;70.89;98689.94;101039;297;24239;-35
2023/07/24 02:55:26;;;;;;;2.80;1.30;;;;;;;16.62;71.07;98687.10;101025;297;24252;-30
2023/07/24 02:57:52;;;;;;;3.30;1.60;;;;;;;16.63;70.55;98685.23;101174;285;24146;-31
2023/07/24 03:00:17;;;;;;;2.30;1.40;;;;;;;16.66;70.70;98687.09;101177;297;26952;-29
2023/07/24 03:02:43;;;;;;;3.20;1.90;;;;;;;16.70;70.57;98686.02;101042;285;27084;-34
2023/07/24 03:05:08;;;;;;;4.50;1.60;;;;;;;16.74;70.97;98681.95;101015;285;24139;-30
2023/07/24 03:07:34;;;;;;;2.70;1.60;;;;;;;16.70;71.32;98682.38;101317;285;22886;-34
2023/07/24 03:10:00;;;;;;;4.90;2.90;;;;;;;16.71;70.86;98688.79;101244;285;22882;-36
2023/07/24 03:12:26;;;;;;;4.10;2.70;;;;;;;16.70;71.21;98686.71;101359;285;22578;-34
2023/07/24 03:14:51;;;;;;;2.40;1.70;;;;;;;16.64;72.29;98682.25;101190;297;24143;-34
2023/07/24 03:17:17;;;;;;;3.30;1.90;;;;;;;16.64;72.41;98676.56;101203;296;24073;-32
2023/07/24 03:19:42;;;;;;;2.40;1.90;;;;;;;16.66;71.92;98677.88;101262;285;22594;-30
2023/07/24 03:22:08;;;;;;;3.40;2.20;;;;;;;16.65;73.31;98678.19;101346;285;22643;-34
2023/07/24 03:24:34;;;;;;;12.70;2.60;;;;;;;16.65;73.30;98661.55;101227;285;24120;-31
2023/07/24 03:27:00;;;;;;;3.00;2.00;;;;;;;16.68;73.75;98664.84;100481;285;1004797;-35
2023/07/24 03:29:26;;;;;;;2.40;1.60;;;;;;;16.70;73.52;98671.10;99014;296;1003145;-34
2023/07/24 03:31:52;;;;;;;2.30;1.20;;;;;;;16.78;73.28;98675.27;100432;285;1002702;-32
2023/07/24 03:34:17;;;;;;;2.90;2.20;;;;;;;16.83;73.54;98669.96;101085;285;24142;-36
2023/07/24 03:36:43;;;;;;;3.20;2.40;;;;;;;16.90;73.20;98669.39;101171;296;23014;-35
2023/07/24 03:39:09;;;;;;;1.90;1.30;;;;;;;16.88;73.39;98668.98;101009;297;26942;-34
2023/07/24 03:41:35;;;;;;;9.50;2.80;;;;;;;16.92;73.29;98661.80;100998;285;24239;-30
2023/07/24 03:44:02;;;;;;;2.70;1.50;;;;;;;16.97;74.94;98663.92;101139;296;26901;-34
2023/07/24 03:46:27;;;;;;;1.70;1.10;;;;;;;17.04;74.05;98668.60;100963;296;24153;-30
2023/07/24 03:48:53;;;;;;;2.60;1.60;;;;;;;17.08;73.39;98675.64;101005;296;26983;-34
2023/07/24 03:51:19;;;;;;;3.80;2.90;;;;;;;17.09;73.52;98675.44;101258;297;24261;-35
2023/07/24 03:53:44;;;;;;;3.30;2.40;;;;;;;17.13;74.22;98671.19;101265;285;24580;-30
2023/07/24 03:56:10;;;;;;;5.30;2.50;;;;;;;17.21;74.04;98670.06;100436;285;1003019;-35
2023/07/24 03:58:37;;;;;;;5.00;2.60;;;;;;;17.30;73.79;98663.64;101298;296;22614;-34
2023/07/24 04:01:03;;;;;;;5.30;2.30;;;;;;;17.34;73.85;98659.92;101274;296;24175;-35
2023/07/24 04:03:28;;;;;;;3.90;2.20;;;;;;;17.43;73.44;98662.98;101279;285;24142;-29
2023/07/24 04:05:54;;;;;;;3.90;2.60;;;;;;;17.48;73.51;98657.48;101325;297;24261;-30
2023/07/24 04:08:19;;;;;;;2.10;1.70;;;;;;;17.55;72.97;98660.64;101240;297;24146;-37
2023/07/24 04:10:45;;;;;;;5.30;2.50;;;;;;;17.59;72.74;98665.55;101259;288;24239;-35
2023/07/24 04:13:10;;;;;;;2.70;2.40;;;;;;;17.67;72.54;98662.80;101253;296;23112;-35
2023/07/24 04:15:36;;;;;;;5.00;1.70;;;;;;;17.72;72.54;98660.04;101236;298;24715;-31
2023/07/24 04:18:02;;;;;;;1.60;1.20;;;;;;;17.87;72.96;98652.29;101295;285;24118;-36
2023/07/24 04:20:28;;;;;;;2.00;1.50;;;;;;;18.25;72.51;98654.78;101292;285;24151;-30
2023/07/24 04:22:54;;;;;;;2.20;1.90;;;;;;;18.64;72.19;98650.54;101237;285;24360;-31
2023/07/24 04:25:20;;;;;;;3.40;2.00;;;;;;;19.03;71.07;98649.13;101334;297;22579;-31
2023/07/24 04:27:45;;;;;;;3.40;2.10;;;;;;;19.03;70.25;98647.06;101301;285;24114;-32
2023/07/24 04:30:11;;;;;;;3.00;1.80;;;;;;;19.01;69.93;98651.29;101345;285;24265;-36
2023/07/24 04:32:37;;;;;;;4.10;2.90;;;;;;;18.99;69.73;98652.61;101309;297;22607;-30
2023/07/24 04:35:03;;;;;;;10.90;2.60;;;;;;;18.97;69.18;98654.77;101246;285;24144;-34
2023/07/24 04:37:29;;;;;;;4.00;2.40;;;;;;;19.00;68.99;98656.73;101278;285;22822;-34
2023/07/24 04:39:54;;;;;;;14.90;3.00;;;;;;;19.08;68.57;98656.86;101274;296;24260;-36
2023/07/24 04:42:20;;;;;;;4.50;2.60;;;;;;;19.10;68.35;98664.27;101248;296;22577;-35
2023/07/24 04:44:47;;;;;;;5.30;2.60;;;;;;;19.10;68.23;98663.39;101404;297;24194;-35
2023/07/24 04:47:13;;;;;;;4.90;2.70;;;;;;;19.24;67.88;98658.02;101218;298;22577;-37
2023/07/24 04:49:38;;;;;;;3.10;2.50;;;;;;;19.39;66.86;98658.91;101362;297;24145;-32
2023/07/24 04:52:04;;;;;;;3.40;2.40;;;;;;;19.57;65.63;98650.01;101295;285;24032;-34
2023/07/24 04:54:30;;;;;;;3.90;2.50;;;;;;;19.76;64.85;98654.88;101176;285;24197;-34
2023/07/24 04:56:55;;;;;;;7.30;1.90;;;;;;;20.00;64.01;98652.64;101051;296;22888;-36
2023/07/24 04:59:21;;;;;;;2.40;1.80;;;;;;;20.32;62.66;98653.31;101044;285;25794;-33
2023/07/24 05:01:46;;;;;;;13.60;2.20;;;;;;;20.55;61.54;98650.19;101017;285;24229;-35
2023/07/24 05:04:12;;;;;;;2.00;1.50;;;;;;;20.59;59.66;98650.77;101184;297;22957;-37
2023/07/24 05:06:38;;;;;;;7.70;4.30;;;;;;;20.59;59.83;98652.52;101098;297;22666;-35
2023/07/24 05:09:04;;;;;;;9.80;2.60;;;;;;;20.69;59.33;98657.55;101123;287;24104;-34
2023/07/24 05:11:30;;;;;;;3.70;1.90;;;;;;;20.90;58.49;98656.86;101101;296;22834;-31
2023/07/24 05:13:55;;;;;;;3.80;2.30;;;;;;;21.12;57.54;98653.02;101075;297;26860;-32
2023/07/24 05:16:21;;;;;;;4.50;2.40;;;;;;;21.27;56.96;98655.38;100996;296;22885;-31
2023/07/24 05:18:46;;;;;;;7.50;2.70;;;;;;;21.30;56.65;98654.47;101001;285;24167;-36
2023/07/24 05:21:12;;;;;;;10.80;2.20;;;;;;;21.42;57.06;98660.27;101049;296;22636;-31
2023/07/24 05:23:37;;;;;;;5.00;2.00;;;;;;;21.54;56.42;98657.80;101007;285;24217;-31
2023/07/24 05:26:03;;;;;;;3.40;2.00;;;;;;;21.67;55.89;98659.82;101146;296;24215;-35
2023/07/24 05:28:30;;;;;;;8.10;2.30;;;;;;;21.83;55.97;98661.27;101074;296;22618;-36
2023/07/24 05:30:55;;;;;;;3.90;1.60;;;;;;;22.08;54.88;98658.05;100866;298;22889;-32
2023/07/24 05:33:21;;;;;;;4.00;2.20;;;;;;;22.29;54.55;98651.98;101052;296;22812;-35
2023/07/24 05:35:49;;;;;;;3.90;2.50;;;;;;;22.44;53.64;98649.35;100950;297;22582;-33
2023/07/24 05:38:14;;;;;;;2.90;2.30;;;;;;;22.54;52.71;98647.30;101061;297;24116;-32
2023/07/24 05:40:40;;;;;;;3.70;2.70;;;;;;;22.66;52.08;98651.59;101091;289;24076;-31
2023/07/24 05:43:06;;;;;;;1.60;1.30;;;;;;;22.82;51.70;98653.66;101196;285;24271;-35
2023/07/24 05:45:32;;;;;;;2.60;2.10;;;;;;;22.97;50.53;98651.02;101114;285;26853;-35
2023/07/24 05:47:59;;;;;;;2.30;1.60;;;;;;;23.04;50.60;98650.65;100991;285;25493;-34
2023/07/24 05:50:24;;;;;;;2.70;1.90;;;;;;;23.19;50.30;98646.30;101092;285;22883;-33
2023/07/24 05:52:50;;;;;;;2.30;2.00;;;;;;;23.50;49.57;98645.15;100513;297;1002103;-35
2023/07/24 05:55:16;;;;;;;3.70;2.40;;;;;;;-9.97;48.28;102663.64;100820;285;405901;-28
2023/07/24 05:57:41;;;;;;;3.00;2.00;;;;;;;23.80;48.05;98630.41;101152;285;25266;-35
2023/07/24 06:00:07;;;;;;;5.30;2.10;;;;;;;23.98;47.14;98633.06;100978;285;22754;-30
2023/07/24 06:02:33;;;;;;;7.30;1.90;;;;;;;24.14;46.47;98633.20;101071;298;24053;-31
2023/07/24 06:04:58;;;;;;;3.80;2.70;;;;;;;24.29;45.43;98626.82;101145;296;26843;-31
2023/07/24 06:07:24;;;;;;;10.40;2.60;;;;;;;24.33;45.64;98621.50;101089;285;24362;-35
2023/07/24 06:09:50;;;;;;;3.80;2.50;;;;;;;24.44;44.74;98619.30;101198;285;26888;-35
2023/07/24 06:12:15;;;;;;;4.20;2.20;;;;;;;24.44;44.34;98618.91;101057;285;24117;-31
2023/07/24 06:14:41;;;;;;;3.60;2.40;;;;;;;24.57;44.28;98617.69;101075;296;22996;-39
2023/07/24 06:17:06;;;;;;;4.50;1.90;;;;;;;24.80;44.13;98609.73;101040;285;24176;-31
2023/07/24 06:19:32;;;;;;;5.00;2.50;;;;;;;25.07;43.52;98603.65;101072;285;24066;-32
2023/07/24 06:21:58;;;;;;;3.50;2.10;;;;;;;25.17;43.53;98604.09;100969;285;28094;-31
2023/07/24 06:24:23;;;;;;;2.80;2.10;;;;;;;25.30;43.07;98598.33;101041;297;23046;-31
2023/07/24 06:26:50;;;;;;;1.90;1.60;;;;;;;25.41;43.03;98592.84;101027;296;22595;-32
2023/07/24 06:29:16;;;;;;;3.90;2.40;;;;;;;25.46;42.60;98589.90;101109;296;26947;-30
2023/07/24 06:31:41;;;;;;;5.00;2.10;;;;;;;25.46;42.49;98588.80;101125;296;22577;-36
2023/07/24 06:34:07;;;;;;;4.40;2.40;;;;;;;25.38;42.16;98583.89;101162;285;24213;-35
2023/07/24 06:36:33;;;;;;;4.80;1.90;;;;;;;25.41;42.13;98587.66;101190;285;24199;-35
2023/07/24 06:38:58;;;;;;;4.80;2.00;;;;;;;25.41;41.66;98589.48;101150;293;22884;-31
2023/07/24 06:41:24;;;;;;;3.10;1.90;;;;;;;25.30;41.60;98588.46;101068;285;25348;-33
2023/07/24 06:43:51;;;;;;;3.50;2.70;;;;;;;25.04;41.97;98583.82;101038;285;26900;-35
2023/07/24 06:46:20;;;;;;;3.10;1.90;;;;;;;24.95;42.46;98586.08;101064;285;24116;-36
2023/07/24 06:48:46;;;;;;;4.00;3.00;;;;;;;24.96;42.24;98580.56;101075;296;24184;-35
2023/07/24 06:51:11;;;;;;;4.90;3.20;;;;;;;24.81;42.80;98582.29;100988;296;25176;-38
2023/07/24 06:53:37;;;;;;;2.80;2.30;;;;;;;24.88;42.60;98582.11;101040;296;25671;-36
2023/07/24 06:56:03;;;;;;;2.30;1.80;;;;;;;24.77;42.87;98580.95;101087;285;22596;-31
2023/07/24 06:58:29;;;;;;;3.00;2.00;;;;;;;24.95;42.37;98579.25;101081;285;24360;-33
2023/07/24 07:00:54;;;;;;;8.60;3.40;;;;;;;24.80;43.21;98581.77;100989;285;24146;-35
2023/07/24 07:03:20;;;;;;;5.30;3.00;;;;;;;24.79;43.74;98585.46;101060;296;24241;-36
2023/07/24 07:05:46;;;;;;;2.10;1.30;;;;;;;25.09;42.95;98584.83;101090;296;22685;-30
2023/07/24 07:08:11;;;;;;;4.40;2.70;;;;;;;25.37;42.37;98585.56;100998;285;25299;-35
2023/07/24 07:10:37;;;;;;;5.00;2.30;;;;;;;25.76;40.69;98579.29;101041;285;25639;-35
2023/07/24 07:13:02;;;;;;;11.70;2.10;;;;;;;25.63;40.84;98568.12;101121;285;22888;-29
2023/07/24 07:15:28;;;;;;;4.40;2.10;;;;;;;25.57;41.50;98568.61;101016;285;24266;-35
2023/07/24 07:17:54;;;;;;;2.30;1.60;;;;;;;25.93;41.66;98566.78;101009;285;26969;-32
2023/07/24 07:20:20;;;;;;;6.20;2.20;;;;;;;26.17;41.20;98566.80;100983;288;25282;-31
2023/07/24 07:22:45;;;;;;;4.90;2.50;;;;;;;26.27;40.91;98570.97;100983;298;25907;-35
2023/07/24 07:25:11;;;;;;;2.50;1.50;;;;;;;26.27;41.07;98568.34;100983;285;23013;-31
2023/07/24 07:27:37;;;;;;;2.80;1.70;;;;;;;26.67;40.11;98567.42;101071;296;25296;-31
2023/07/24 07:30:04;;;;;;;3.40;2.20;;;;;;;26.55;39.82;98572.04;101115;285;24077;-35
2023/07/24 07:32:29;;;;;;;7.00;2.40;;;;;;;26.56;39.88;98567.15;101123;285;22579;-33
2023/07/24 07:34:55;;;;;;;2.90;2.40;;;;;;;26.62;39.35;98567.36;101134;285;22580;-31
2023/07/24 07:37:21;;;;;;;2.50;1.90;;;;;;;26.62;39.14;98568.76;101002;297;26864;-37
2023/07/24 07:39:46;;;;;;;2.70;2.00;;;;;;;26.58;39.30;98566.94;101008;285;23013;-32
2023/07/24 07:42:12;;;;;;;8.70;2.30;;;;;;;26.68;39.36;98566.42;101063;285;24122;-33
2023/07/24 07:44:38;;;;;;;4.30;2.40;;;;;;;27.03;38.64;98563.64;101037;285;22579;-31
2023/07/24 07:47:06;;;;;;;3.10;2.50;;;;;;;27.06;38.27;98561.31;101059;296;25609;-35
2023/07/24 07:49:31;;;;;;;2.50;1.50;;;;;;;26.83;38.44;98557.51;101033;296;26861;-35
2023/07/24 07:51:57;;;;;;;2.00;1.70;;;;;;;26.77;38.68;98555.66;101098;285;27091;-37
2023/07/24 07:54:23;;;;;;;3.80;1.70;;;;;;;26.97;38.31;98553.91;101042;285;22580;-31
2023/07/24 07:56:49;;;;;;;3.90;2.70;;;;;;;27.12;38.64;98552.98;101019;285;26860;-31
2023/07/24 07:59:14;;;;;;;3.50;2.10;;;;;;;27.33;38.28;98546.78;101029;297;24546;-30
2023/07/24 08:01:41;;;;;;;4.70;2.80;;;;;;;27.53;37.71;98544.29;101055;296;23011;-31
2023/07/24 08:04:07;;;;;;;2.90;2.20;;;;;;;27.76;36.40;98537.15;101045;296;22991;-31
2023/07/24 08:06:33;;;;;;;5.40;3.10;;;;;;;27.82;36.06;98543.78;101060;285;27101;-32
2023/07/24 08:08:58;;;;;;;3.00;1.50;;;;;;;27.91;35.71;98541.73;101006;296;24260;-35
2023/07/24 08:11:24;;;;;;;3.00;2.60;;;;;;;27.86;35.88;98535.40;101145;297;22586;-38
2023/07/24 08:13:49;;;;;;;4.00;2.40;;;;;;;27.97;36.01;98533.95;101156;297;22883;-36
2023/07/24 08:16:18;;;;;;;2.20;1.80;;;;;;;28.40;35.38;98530.42;101049;296;23127;-35
2023/07/24 08:18:45;;;;;;;4.20;3.30;;;;;;;28.71;34.30;98531.63;101025;285;26996;-32
2023/07/24 08:21:11;;;;;;;4.80;2.20;;;;;;;28.63;32.99;98522.63;100965;285;25322;-32
2023/07/24 08:23:37;;;;;;;1.90;1.70;;;;;;;28.84;33.22;98525.54;100951;285;22988;-35
2023/07/24 08:26:02;;;;;;;16.80;3.10;;;;;;;29.18;32.58;98524.94;101071;296;24146;-36
2023/07/24 08:28:28;;;;;;;7.00;2.60;;;;;;;29.01;33.28;98522.27;100940;296;26949;-32
2023/07/24 08:30:57;;;;;;;3.20;2.30;;;;;;;29.44;32.01;98516.86;101042;285;24119;-39
2023/07/24 08:33:23;;;;;;;5.00;2.40;;;;;;;29.38;31.39;98518.41;101194;297;24114;-37
2023/07/24 08:36:00;;;;;;;2.90;2.20;;;;;;;29.34;31.29;98517.48;101076;297;27080;-36
2023/07/24 08:38:26;;;;;;;2.90;2.30;;;;;;;29.48;31.52;98519.06;101023;285;22658;-32
2023/07/24 08:41:04;;;;;;;4.30;2.40;;;;;;;29.58;30.82;98527.73;101093;285;24113;-35
2023/07/24 08:43:31;;;;;;;4.80;2.20;;;;;;;29.95;30.15;98518.89;101135;285;26864;-35
2023/07/24 08:45:57;;;;;;;8.40;2.90;;;;;;;29.84;30.32;98522.19;101015;298;25805;-36
2023/07/24 08:48:24;;;;;;;4.50;2.40;;;;;;;29.48;31.06;98525.77;101052;296;22700;-35
2023/07/24 08:50:50;;;;;;;2.80;1.80;;;;;;;29.72;31.04;98522.25;101106;296;24114;-31
2023/07/24 08:53:18;;;;;;;3.60;2.50;;;;;;;29.90;30.91;98515.64;101099;296;26853;-33
2023/07/24 08:55:43;;;;;;;4.80;3.00;;;;;;;29.76;31.40;98515.06;101043;297;24157;-32
2023/07/24 08:58:09;;;;;;;8.80;3.10;;;;;;;30.05;31.17;98512.00;101001;285;25299;-35
2023/07/24 09:00:35;;;;;;;3.50;2.40;;;;;;;30.29;30.83;98507.96;101136;285;24114;-35
2023/07/24 09:03:01;;;;;;;3.20;2.60;;;;;;;30.53;30.77;98506.33;101033;296;25523;-36
2023/07/24 09:05:26;;;;;;;3.40;2.70;;;;;;;30.57;30.63;98502.80;101059;298;25765;-35
2023/07/24 09:07:53;;;;;;;4.70;2.50;;;;;;;30.74;30.26;98508.76;101006;285;25642;-35
2023/07/24 09:10:27;;;;;;;5.90;2.90;;;;;;;30.90;30.15;98507.85;100882;297;22677;-33
2023/07/24 09:12:53;;;;;;;3.10;2.20;;;;;;;30.85;30.12;98507.95;100881;288;25490;-35
2023/07/24 09:15:18;;;;;;;5.70;2.60;;;;;;;30.86;30.11;98508.52;100936;285;24140;-36
2023/07/24 09:17:51;;;;;;;3.50;3.20;;;;;;;30.78;29.96;98508.70;101038;285;22701;-30
2023/07/24 09:20:18;;;;;;;4.10;2.80;;;;;;;30.73;30.38;98514.98;100640;285;555550;-37
2023/07/24 09:22:50;;;;;;;4.00;2.90;;;;;;;30.88;29.89;98505.84;100993;285;24250;-37
2023/07/24 09:25:16;;;;;;;1.90;1.10;;;;;;;30.77;30.22;98497.34;101142;296;25794;-30
2023/07/24 09:27:42;;;;;;;5.10;3.40;;;;;;;30.30;30.59;98491.58;101004;296;24196;-35
2023/07/24 09:30:14;;;;;;;2.80;1.50;;;;;;;30.41;30.83;98488.75;101049;296;22575;-31
2023/07/24 09:32:40;;;;;;;5.50;3.20;;;;;;;30.30;30.56;98482.60;101101;285;24522;-37
2023/07/24 09:35:18;;;;;;;4.20;3.20;;;;;;;30.40;30.36;98476.63;101145;285;26960;-42
2023/07/24 09:37:44;;;;;;;3.90;3.00;;;;;;;30.08;30.66;98476.26;101052;296;26994;-32
2023/07/24 09:40:11;;;;;;;6.50;3.50;;;;;;;30.54;30.07;98480.20;101047;296;26925;-32
2023/07/24 09:42:37;;;;;;;5.20;2.40;;;;;;;30.73;29.64;98473.70;101063;296;24133;-36
2023/07/24 09:45:04;;;;;;;5.00;3.40;;;;;;;30.41;30.18;98469.15;101064;296;26907;-36
2023/07/24 09:47:30;;;;;;;3.00;2.30;;;;;;;30.32;30.50;98467.20;101008;285;24232;-36
2023/07/24 09:49:57;;;;;;;2.90;2.50;;;;;;;30.64;30.32;98459.28;101056;289;22578;-35
2023/07/24 09:52:23;;;;;;;4.70;3.20;;;;;;;30.84;30.34;98456.04;101125;296;22672;-31
2023/07/24 09:54:59;;;;;;;5.10;3.60;;;;;;;30.70;30.70;98466.04;101053;297;25915;-33
2023/07/24 09:57:26;;;;;;;7.40;2.40;;;;;;;30.65;30.53;98464.92;101114;296;26873;-31
2023/07/24 09:59:53;;;;;;;2.10;1.90;;;;;;;30.50;30.72;98461.95;100960;296;24193;-35
2023/07/24 10:02:19;;;;;;;4.80;2.60;;;;;;;30.49;30.01;98455.44;101038;297;25543;-34
2023/07/24 10:04:45;;;;;;;6.70;3.80;;;;;;;30.13;30.78;98453.32;100938;297;24033;-36
2023/07/24 10:07:10;;;;;;;10.50;2.70;;;;;;;29.97;31.17;98452.67;101057;285;22882;-33
2023/07/24 10:09:36;;;;;;;5.20;3.00;;;;;;;29.83;31.34;98449.31;101017;285;22883;-36
2023/07/24 10:12:02;;;;;;;4.80;2.60;;;;;;;29.51;31.75;98457.27;100905;296;25287;-34
2023/07/24 10:14:29;;;;;;;5.20;2.70;;;;;;;29.29;32.24;98454.39;101022;285;26852;-31
2023/07/24 10:16:56;;;;;;;3.60;2.90;;;;;;;28.96;33.22;98453.87;100851;288;25408;-32
2023/07/24 10:19:21;;;;;;;4.30;3.30;;;;;;;28.63;34.36;98455.79;101154;285;26887;-40
2023/07/24 10:21:48;;;;;;;7.40;3.50;;;;;;;29.10;33.99;98456.51;101090;285;22576;-34
2023/07/24 10:24:15;;;;;;;5.40;3.30;;;;;;;29.32;33.64;98449.77;101013;298;25196;-35
2023/07/24 10:26:40;;;;;;;3.80;2.90;;;;;;;29.52;33.38;98443.95;100971;285;25155;-35
2023/07/24 10:29:06;;;;;;;3.20;2.10;;;;;;;29.73;33.47;98435.71;101050;296;25302;-32
2023/07/24 10:31:32;;;;;;;4.80;3.00;;;;;;;29.87;33.62;98434.55;101017;285;24113;-32
2023/07/24 10:34:05;;;;;;;5.00;3.10;;;;;;;29.81;32.76;98436.47;101140;296;22895;-32
2023/07/24 10:36:33;;;;;;;3.40;2.20;;;;;;;29.22;33.51;98447.69;101135;297;24258;-32
2023/07/24 10:39:01;;;;;;;5.40;3.10;;;;;;;28.61;34.01;98455.45;101076;285;24116;-32
2023/07/24 10:41:39;;;;;;;4.50;3.50;;;;;;;28.41;34.58;98458.90;101101;287;22529;-40
2023/07/24 10:44:05;;;;;;;5.40;3.80;;;;;;;28.59;34.73;98446.38;101110;296;22583;-35
2023/07/24 10:46:38;;;;;;;3.70;2.70;;;;;;;28.53;35.12;98440.73;101020;285;25267;-35
2023/07/24 10:49:04;;;;;;;3.30;2.30;;;;;;;28.57;35.37;98440.77;101021;296;22576;-35
2023/07/24 10:51:33;;;;;;;4.10;3.20;;;;;;;28.62;35.56;98437.64;101016;285;26854;-35
2023/07/24 10:53:59;;;;;;;4.40;2.30;;;;;;;28.52;35.85;98441.30;101022;285;26978;-35
2023/07/24 10:56:25;;;;;;;4.80;3.10;;;;;;;28.39;35.80;98443.44;101117;296;22580;-35
2023/07/24 10:58:50;;;;;;;5.10;2.90;;;;;;;27.94;36.57;98447.79;101122;296;25725;-31
2023/07/24 11:01:17;;;;;;;4.40;3.00;;;;;;;27.66;36.95;98444.19;101182;285;22661;-32
2023/07/24 11:03:42;;;;;;;5.60;2.50;;;;;;;27.46;37.35;98450.82;101043;296;22676;-37
2023/07/24 11:06:15;;;;;;;4.30;3.70;;;;;;;27.30;37.57;98448.41;101036;285;23136;-32
2023/07/24 11:08:42;;;;;;;4.70;3.00;;;;;;;27.16;37.98;98447.69;100991;285;25148;-35
2023/07/24 11:11:08;;;;;;;4.80;3.10;;;;;;;27.06;38.12;98444.83;101014;285;22889;-35
2023/07/24 11:13:34;;;;;;;3.40;2.70;;;;;;;26.89;38.87;98435.86;101022;297;26928;-30
2023/07/24 11:16:07;;;;;;;8.60;4.30;;;;;;;26.93;38.95;98436.73;101124;297;24121;-30
2023/07/24 11:18:33;;;;;;;11.60;3.90;;;;;;;26.94;39.04;98441.13;101058;297;24141;-31
2023/07/24 11:20:58;;;;;;;5.00;2.60;;;;;;;27.13;39.00;98438.70;100969;298;24213;-35
2023/07/24 11:23:24;;;;;;;4.50;3.50;;;;;;;27.25;38.41;98436.08;101077;296;24360;-36
2023/07/24 11:25:51;;;;;;;3.80;2.80;;;;;;;27.44;38.25;98432.58;100844;288;28080;-31
2023/07/24 11:28:17;;;;;;;7.10;3.40;;;;;;;27.40;38.45;98432.11;101025;299;22884;-35
2023/07/24 11:30:43;;;;;;;3.70;2.90;;;;;;;27.53;38.38;98424.59;101128;285;26851;-32
2023/07/24 11:33:10;;;;;;;3.50;2.80;;;;;;;27.65;38.00;98423.91;101090;297;25299;-31
2023/07/24 11:35:38;;;;;;;5.30;4.30;;;;;;;27.59;38.37;98418.84;101103;285;26864;-35
2023/07/24 11:38:04;;;;;;;7.70;4.20;;;;;;;27.76;38.42;98414.91;101087;285;22593;-31
2023/07/24 11:40:34;;;;;;;5.10;2.80;;;;;;;27.92;37.71;98408.98;101058;296;24142;-33
2023/07/24 11:43:01;;;;;;;4.70;2.80;;;;;;;28.03;37.41;98404.27;101137;296;24116;-35
2023/07/24 11:45:27;;;;;;;4.00;2.80;;;;;;;28.04;37.34;98401.48;101129;296;22882;-35
2023/07/24 11:47:53;;;;;;;4.50;3.30;;;;;;;27.84;37.71;98400.33;101056;296;24261;-37
2023/07/24 11:50:20;;;;;;;4.50;3.70;;;;;;;28.24;37.73;98389.27;101132;297;24146;-38
2023/07/24 11:52:47;;;;;;;4.40;2.90;;;;;;;28.50;37.58;98388.92;101100;296;25447;-35
2023/07/24 11:55:14;;;;;;;5.50;3.80;;;;;;;28.76;36.60;98379.18;101018;297;25263;-31
2023/07/24 11:57:40;;;;;;;4.00;3.10;;;;;;;28.73;36.58;98383.50;101042;296;27074;-33
2023/07/24 12:00:19;;;;;;;7.00;2.90;;;;;;;29.02;36.34;98375.10;101135;297;25304;-36
2023/07/24 12:02:45;;;;;;;11.30;3.20;;;;;;;29.20;35.71;98374.85;101109;297;24268;-32
2023/07/24 12:05:11;;;;;;;8.90;4.10;;;;;;;29.31;35.65;98373.15;100993;296;24259;-36